Terminal Aerodrome Forecast
Issued by NWS North Platte, NE

Home | Current Version | Previous Version | Text Only | Print | Product List | Glossary On
Versions: 1 2 3 4 5 6 7 8 9 10 11 12 13 14 15 16
000
FTUS43 KLBF 251126
TAFVTN
TAF
KVTN 251126Z 2512/2612 28005KT P6SM FEW100
     FM251800 32006KT P6SM SKC
     FM252100 31008KT P6SM FEW200
     FM260200 VRB05KT P6SM SCT100 BKN200
     FM260800 01005KT P6SM BKN200=

USA.gov is the U.S. government's official web portal to all federal, state and local government web resources and services.